Time;durP1;ratioP1;P1;durP2;ratioP2;P2;SDS_P1;SDS_P2;PMS_P1;PMS_P2;Temp;Humidity;BMP_temperature;BMP_pressure;BME280_temperature;BME280_humidity;BME280_pressure;Samples;Min_cycle;Max_cycle;Signal;HPM_P1;HPM_P2
2022/06/24 00:01:17;;;;;;;0.50;0.30;;;20.40;99.90;;;;;;5026751;28;20202;-54
2022/06/24 00:03:47;;;;;;;0.30;0.20;;;20.30;99.90;;;;;;5032469;28;20198;-54
2022/06/24 00:06:15;;;;;;;1.90;0.20;;;20.40;99.90;;;;;;5032385;28;20222;-54
2022/06/24 00:08:54;;;;;;;0.50;0.20;;;20.30;99.90;;;;;;5030596;28;20780;-54
2022/06/24 00:11:28;;;;;;;0.13;0.13;;;20.30;99.90;;;;;;5016907;28;20209;-54
2022/06/24 00:14:05;;;;;;;2.03;0.40;;;20.30;99.90;;;;;;5026521;28;20739;-54
2022/06/24 00:16:32;;;;;;;1.70;0.30;;;20.20;99.90;;;;;;5027364;28;20291;-54
2022/06/24 00:19:12;;;;;;;1.03;0.17;;;20.30;99.90;;;;;;5032601;28;20206;-56
2022/06/24 00:21:39;;;;;;;0.53;0.30;;;20.30;99.90;;;;;;5031438;28;20206;-56
2022/06/24 00:24:07;;;;;;;2.37;0.50;;;20.20;99.90;;;;;;5029346;28;20668;-57
2022/06/24 00:26:40;;;;;;;1.07;0.20;;;20.20;99.90;;;;;;5030497;28;20280;-57
2022/06/24 00:29:07;;;;;;;1.17;0.20;;;20.30;99.90;;;;;;5028386;28;20205;-54
2022/06/24 00:31:34;;;;;;;0.57;0.30;;;20.30;99.90;;;;;;5030960;28;20587;-57
2022/06/24 00:34:01;;;;;;;1.30;0.20;;;20.20;99.90;;;;;;5030976;28;20202;-57
2022/06/24 00:36:28;;;;;;;1.17;0.30;;;20.20;99.90;;;;;;5025363;28;20724;-56
2022/06/24 00:38:56;;;;;;;0.33;0.30;;;20.20;99.90;;;;;;5023154;28;20792;-56
2022/06/24 00:41:25;;;;;;;2.83;0.20;;;20.20;99.90;;;;;;5031255;28;20206;-56
2022/06/24 00:43:56;;;;;;;0.57;0.30;;;20.10;99.90;;;;;;5030127;28;20198;-57
2022/06/24 00:46:28;;;;;;;2.00;0.33;;;20.10;99.90;;;;;;5022431;28;20825;-54
2022/06/24 00:48:57;;;;;;;2.30;0.37;;;20.10;99.90;;;;;;5029543;28;20668;-56
2022/06/24 00:51:32;;;;;;;0.47;0.23;;;20.10;99.90;;;;;;5029749;28;20589;-57
2022/06/24 00:54:07;;;;;;;1.17;0.20;;;20.10;99.90;;;;;;5029188;28;20221;-57
2022/06/24 00:56:34;;;;;;;0.53;0.20;;;20.10;99.90;;;;;;5027367;28;20222;-57
2022/06/24 00:59:05;;;;;;;1.80;0.20;;;20.10;99.90;;;;;;5026333;28;20202;-57
2022/06/24 01:01:34;;;;;;;1.43;0.20;;;20.10;99.90;;;;;;5029681;28;20210;-57
2022/06/24 01:04:03;;;;;;;0.27;0.27;;;20.10;99.90;;;;;;5019171;28;20194;-55
2022/06/24 01:06:31;;;;;;;1.30;0.40;;;20.10;99.90;;;;;;5019919;28;20223;-57
2022/06/24 01:08:58;;;;;;;0.93;0.60;;;20.00;99.90;;;;;;5015896;28;20267;-56
2022/06/24 01:11:26;;;;;;;2.70;0.30;;;20.00;99.90;;;;;;5023269;28;20211;-57
2022/06/24 01:13:54;;;;;;;1.07;0.37;;;19.90;99.90;;;;;;5031118;28;20226;-55
2022/06/24 01:16:23;;;;;;;0.30;0.30;;;20.00;99.90;;;;;;5030104;28;20295;-54
2022/06/24 01:18:52;;;;;;;0.77;0.40;;;20.00;99.90;;;;;;5027859;28;20203;-54
2022/06/24 01:21:34;;;;;;;0.60;0.27;;;20.00;99.90;;;;;;5025663;28;20202;-54
2022/06/24 01:24:06;;;;;;;0.20;0.20;;;20.00;99.90;;;;;;5028591;28;20285;-55
2022/06/24 01:26:33;;;;;;;0.37;0.37;;;19.90;99.90;;;;;;5030223;28;20642;-54
2022/06/24 01:29:00;;;;;;;2.27;0.20;;;19.90;99.90;;;;;;5026844;28;20256;-54
2022/06/24 01:31:28;;;;;;;1.07;0.20;;;19.90;99.90;;;;;;5024541;28;20664;-54
2022/06/24 01:33:55;;;;;;;0.40;0.30;;;19.90;99.90;;;;;;5028717;28;20240;-55
2022/06/24 01:36:22;;;;;;;0.47;0.40;;;19.90;99.90;;;;;;5027703;28;20315;-54
2022/06/24 01:38:50;;;;;;;0.70;0.53;;;19.90;99.90;;;;;;5030934;28;20206;-54
2022/06/24 01:41:18;;;;;;;1.17;0.30;;;20.00;99.90;;;;;;5021824;28;20204;-55
2022/06/24 01:43:45;;;;;;;0.40;0.40;;;20.00;99.90;;;;;;5029011;28;20610;-54
2022/06/24 01:46:12;;;;;;;2.97;0.70;;;20.00;99.90;;;;;;5018908;28;20219;-54
2022/06/24 01:48:40;;;;;;;1.40;0.60;;;19.90;99.90;;;;;;5018967;28;20244;-55
2022/06/24 01:51:09;;;;;;;4.23;0.40;;;19.90;99.90;;;;;;5025065;28;20208;-57
2022/06/24 01:53:36;;;;;;;0.50;0.30;;;19.90;99.90;;;;;;5025141;28;20222;-54
2022/06/24 01:56:05;;;;;;;1.70;0.23;;;19.90;99.90;;;;;;5022607;28;20329;-54
2022/06/24 01:58:32;;;;;;;1.40;0.47;;;19.90;99.90;;;;;;5030889;28;20203;-54
2022/06/24 02:00:59;;;;;;;0.50;0.47;;;19.80;99.90;;;;;;5028640;28;20207;-54
2022/06/24 02:03:26;;;;;;;2.57;0.60;;;19.80;99.90;;;;;;5024349;28;20249;-54
2022/06/24 02:05:53;;;;;;;0.47;0.40;;;19.80;99.90;;;;;;5012937;28;20574;-54
2022/06/24 02:08:20;;;;;;;2.37;0.60;;;19.70;99.90;;;;;;5024303;28;20261;-54
2022/06/24 02:13:33;;;;;;;1.13;0.90;;;19.70;99.90;;;;;;5020958;28;20794;-54
2022/06/24 02:16:03;;;;;;;0.57;0.40;;;19.60;99.90;;;;;;5034264;28;20223;-54
2022/06/24 02:18:31;;;;;;;1.80;0.73;;;19.60;99.90;;;;;;5034525;28;20622;-54
2022/06/24 02:20:59;;;;;;;0.67;0.30;;;19.60;99.90;;;;;;5033436;28;20280;-54
2022/06/24 02:23:27;;;;;;;0.70;0.50;;;19.60;99.90;;;;;;5030461;28;20218;-54
2022/06/24 02:25:55;;;;;;;0.70;0.70;;;19.50;99.90;;;;;;5027422;28;20264;-54
2022/06/24 02:28:22;;;;;;;2.10;0.53;;;19.50;99.90;;;;;;5021082;28;20253;-54
2022/06/24 02:30:54;;;;;;;3.10;0.83;;;19.50;99.90;;;;;;5027125;28;20206;-54
2022/06/24 02:33:21;;;;;;;0.97;0.50;;;19.40;99.90;;;;;;5032394;28;20309;-56
2022/06/24 02:35:48;;;;;;;1.00;0.80;;;19.50;99.90;;;;;;5017285;28;20763;-57
2022/06/24 02:38:15;;;;;;;1.43;0.43;;;19.50;99.90;;;;;;5016684;28;20222;-56
2022/06/24 02:40:48;;;;;;;0.60;0.60;;;19.40;99.90;;;;;;5032591;28;20331;-56
2022/06/24 02:43:17;;;;;;;1.30;0.40;;;19.40;99.90;;;;;;5032569;28;20203;-56
2022/06/24 02:45:44;;;;;;;1.13;0.50;;;19.50;99.90;;;;;;5017924;28;20277;-56
2022/06/24 02:48:14;;;;;;;0.67;0.60;;;19.50;99.90;;;;;;5029866;28;20202;-56
2022/06/24 02:50:42;;;;;;;0.53;0.30;;;19.60;99.90;;;;;;5018004;28;20692;-56
2022/06/24 02:53:09;;;;;;;0.77;0.30;;;19.60;99.90;;;;;;5026536;28;20223;-56
2022/06/24 02:55:37;;;;;;;0.80;0.40;;;19.60;99.90;;;;;;5027882;28;20278;-56
2022/06/24 02:58:04;;;;;;;1.97;0.73;;;19.60;99.90;;;;;;5027418;28;20206;-56
2022/06/24 03:00:31;;;;;;;1.13;0.40;;;19.60;99.90;;;;;;5033053;28;20228;-56
2022/06/24 03:02:58;;;;;;;2.20;0.87;;;19.60;99.90;;;;;;5014765;28;20261;-56
2022/06/24 03:05:27;;;;;;;1.57;0.30;;;19.60;99.90;;;;;;5024444;28;20203;-56
2022/06/24 03:07:54;;;;;;;1.17;0.50;;;19.60;99.90;;;;;;5015710;28;20203;-56
2022/06/24 03:10:22;;;;;;;0.53;0.37;;;19.60;99.90;;;;;;5013985;28;20203;-56
2022/06/24 03:12:49;;;;;;;1.07;0.50;;;19.60;99.90;;;;;;5019433;28;20245;-56
2022/06/24 03:15:16;;;;;;;2.70;0.40;;;19.60;99.90;;;;;;5031528;28;20210;-56
2022/06/24 03:17:43;;;;;;;0.87;0.57;;;19.40;99.90;;;;;;5028442;28;20214;-56
2022/06/24 03:20:11;;;;;;;3.40;0.37;;;19.50;99.90;;;;;;5033036;28;20203;-56
2022/06/24 03:22:40;;;;;;;2.10;0.40;;;19.50;99.90;;;;;;5032431;28;20210;-56
2022/06/24 03:25:08;;;;;;;1.40;0.30;;;19.50;99.90;;;;;;5030993;28;20556;-56
2022/06/24 03:27:36;;;;;;;0.87;0.70;;;19.60;99.90;;;;;;5031953;28;20261;-56
2022/06/24 03:30:03;;;;;;;1.87;0.93;;;19.60;99.90;;;;;;5030790;28;20209;-56
2022/06/24 03:32:30;;;;;;;0.63;0.30;;;19.50;99.90;;;;;;5030073;28;20252;-56
2022/06/24 03:34:57;;;;;;;0.80;0.30;;;19.50;99.90;;;;;;5022813;28;20199;-57
2022/06/24 03:37:24;;;;;;;0.23;0.23;;;19.60;99.90;;;;;;5012993;28;20227;-56
2022/06/24 03:39:53;;;;;;;1.33;0.40;;;19.60;99.90;;;;;;5013406;28;20281;-56
2022/06/24 03:42:20;;;;;;;2.43;0.40;;;19.60;99.90;;;;;;5012265;28;20199;-56
2022/06/24 03:44:47;;;;;;;1.47;0.33;;;19.50;99.90;;;;;;5032559;28;20695;-56
2022/06/24 03:47:14;;;;;;;1.70;0.50;;;19.60;99.90;;;;;;5024163;28;20253;-56
2022/06/24 03:49:41;;;;;;;2.83;0.30;;;19.60;99.90;;;;;;5014822;28;20210;-56
2022/06/24 03:52:08;;;;;;;0.60;0.60;;;19.60;99.90;;;;;;5012370;28;20277;-56
2022/06/24 03:54:36;;;;;;;0.70;0.70;;;19.50;99.90;;;;;;5012711;28;20223;-57
2022/06/24 03:57:05;;;;;;;1.60;0.47;;;19.50;99.90;;;;;;5030816;28;20230;-56
2022/06/24 03:59:32;;;;;;;1.77;0.40;;;19.50;99.90;;;;;;5024505;28;20198;-56
2022/06/24 04:01:59;;;;;;;0.63;0.40;;;19.50;99.90;;;;;;5022605;28;20257;-56
2022/06/24 04:04:26;;;;;;;0.50;0.40;;;19.50;99.90;;;;;;5028107;28;20210;-56
2022/06/24 04:06:53;;;;;;;0.83;0.50;;;19.50;99.90;;;;;;5027288;28;20743;-56
2022/06/24 04:09:20;;;;;;;0.50;0.50;;;19.50;99.90;;;;;;5026407;28;20547;-56
2022/06/24 04:11:47;;;;;;;2.00;0.60;;;19.50;99.90;;;;;;5027667;28;20206;-56
2022/06/24 04:15:13;;;;;;;0.33;0.30;;;19.50;99.90;;;;;;5023350;28;20272;-56
2022/06/24 04:17:05;;;;;;;0.80;0.63;;;19.40;99.90;;;;;;5030356;28;20734;-56
2022/06/24 04:19:34;;;;;;;2.23;0.80;;;19.50;99.90;;;;;;5032173;28;20210;-56
2022/06/24 04:22:01;;;;;;;2.20;0.70;;;19.50;99.90;;;;;;5029016;28;20213;-56
2022/06/24 04:24:28;;;;;;;2.90;0.63;;;19.50;99.90;;;;;;5031037;28;20198;-56
2022/06/24 04:26:56;;;;;;;1.77;0.80;;;19.50;99.90;;;;;;5029984;28;20265;-55
2022/06/24 04:29:25;;;;;;;1.03;0.50;;;19.60;99.90;;;;;;5029440;28;20207;-56
2022/06/24 04:31:52;;;;;;;3.57;0.70;;;19.50;99.90;;;;;;5026941;28;20213;-56
2022/06/24 04:34:19;;;;;;;1.37;0.47;;;19.60;99.90;;;;;;5029078;28;20233;-56
2022/06/24 04:36:47;;;;;;;2.17;0.60;;;19.50;99.90;;;;;;5022561;28;20218;-56
2022/06/24 04:39:14;;;;;;;0.97;0.50;;;19.50;99.90;;;;;;5030638;28;20302;-56
2022/06/24 04:41:41;;;;;;;3.93;0.50;;;19.60;99.90;;;;;;5025205;28;20198;-56
2022/06/24 04:44:09;;;;;;;0.70;0.60;;;19.60;99.90;;;;;;5026651;28;20652;-56
2022/06/24 04:46:37;;;;;;;4.20;1.47;;;19.60;99.90;;;;;;5015310;28;20218;-54
2022/06/24 04:49:04;;;;;;;1.70;0.70;;;19.60;99.90;;;;;;5018135;28;20218;-56
2022/06/24 04:51:31;;;;;;;1.80;0.70;;;19.60;99.90;;;;;;5023486;28;20614;-54
2022/06/24 04:53:59;;;;;;;2.37;0.90;;;19.60;99.90;;;;;;5029735;28;20226;-55
2022/06/24 04:56:26;;;;;;;1.50;0.80;;;19.60;99.90;;;;;;5023355;28;20269;-56
2022/06/24 04:58:53;;;;;;;2.60;1.70;;;19.70;99.90;;;;;;5023123;28;20668;-56
2022/06/24 05:01:21;;;;;;;2.27;1.33;;;19.70;99.90;;;;;;5025833;28;20230;-56
2022/06/24 05:03:52;;;;;;;0.63;0.60;;;19.70;99.90;;;;;;5027285;28;20199;-56
2022/06/24 05:06:19;;;;;;;2.13;0.70;;;19.70;99.90;;;;;;5030441;28;20225;-56
2022/06/24 05:08:47;;;;;;;2.83;0.90;;;19.70;99.90;;;;;;5019714;28;20199;-56
2022/06/24 05:11:14;;;;;;;1.80;1.17;;;19.80;99.90;;;;;;5029169;28;20775;-56
2022/06/24 05:13:41;;;;;;;2.13;0.60;;;19.80;99.90;;;;;;5016108;28;20612;-56
2022/06/24 05:16:08;;;;;;;2.50;0.70;;;19.90;99.90;;;;;;5027745;28;20252;-56
2022/06/24 05:18:35;;;;;;;3.60;0.60;;;19.90;99.90;;;;;;5029156;28;20218;-56
2022/06/24 05:21:03;;;;;;;3.50;0.97;;;20.00;99.90;;;;;;5028813;28;20237;-56
2022/06/24 05:23:31;;;;;;;3.07;1.13;;;19.90;99.90;;;;;;5015384;28;20205;-56
2022/06/24 05:25:58;;;;;;;1.80;0.77;;;19.90;99.90;;;;;;5025593;28;20222;-56
2022/06/24 05:28:25;;;;;;;3.03;0.60;;;19.90;99.90;;;;;;5023203;28;20206;-56
2022/06/24 05:30:56;;;;;;;1.90;1.17;;;20.00;99.90;;;;;;5021537;28;20718;-54
2022/06/24 05:33:24;;;;;;;3.13;1.10;;;20.10;99.90;;;;;;5028387;28;20249;-54
2022/06/24 05:35:53;;;;;;;3.70;0.97;;;20.10;99.90;;;;;;5027991;28;20229;-56
2022/06/24 05:38:23;;;;;;;1.50;1.40;;;20.20;99.90;;;;;;5047888;23;20619;-51
2022/06/24 05:40:50;;;;;;;3.77;1.33;;;20.30;99.90;;;;;;5016167;28;20195;-51
2022/06/24 05:43:17;;;;;;;3.27;1.27;;;20.30;99.90;;;;;;5033122;28;20209;-51
2022/06/24 05:45:44;;;;;;;1.37;1.00;;;20.30;99.90;;;;;;5018856;28;20195;-51
2022/06/24 05:48:11;;;;;;;3.00;0.97;;;20.40;99.90;;;;;;5015054;28;20557;-51
2022/06/24 05:50:39;;;;;;;1.00;0.60;;;20.40;99.90;;;;;;5014949;28;20230;-51
2022/06/24 05:56:04;;;;;;;2.50;0.80;;;20.60;99.90;;;;;;4978572;28;20343;-51
2022/06/24 05:58:34;;;;;;;1.87;0.90;;;21.00;99.90;;;;;;5018761;28;20304;-51
2022/06/24 06:01:10;;;;;;;3.30;2.07;;;21.10;99.90;;;;;;5033029;28;20198;-51
2022/06/24 06:03:38;;;;;;;2.83;1.40;;;21.30;99.90;;;;;;5032963;28;20202;-51
2022/06/24 06:06:05;;;;;;;3.60;1.20;;;21.30;99.90;;;;;;5033501;28;20206;-51
2022/06/24 06:08:32;;;;;;;4.80;1.80;;;21.30;99.90;;;;;;5033265;28;20296;-51
2022/06/24 06:10:59;;;;;;;2.33;1.77;;;21.40;99.90;;;;;;5031274;28;20797;-51
2022/06/24 06:13:27;;;;;;;3.63;1.57;;;21.40;99.90;;;;;;5022258;28;20665;-51
2022/06/24 06:15:54;;;;;;;1.00;1.00;;;21.50;99.90;;;;;;5029042;28;20198;-51
2022/06/24 06:18:21;;;;;;;3.63;1.40;;;21.50;99.90;;;;;;5030522;28;20227;-51
2022/06/24 06:20:48;;;;;;;4.33;1.30;;;21.60;99.90;;;;;;5014627;28;20195;-51
2022/06/24 06:23:15;;;;;;;2.93;1.60;;;22.00;99.90;;;;;;5013796;28;20210;-51
2022/06/24 06:25:42;;;;;;;2.83;1.10;;;22.40;99.90;;;;;;5017969;28;20200;-51
2022/06/24 06:28:09;;;;;;;5.70;1.37;;;23.00;99.90;;;;;;5021691;28;20261;-51
2022/06/24 06:30:38;;;;;;;2.33;0.93;;;24.20;99.90;;;;;;5014431;28;20199;-51
2022/06/24 06:33:06;;;;;;;2.13;0.83;;;24.40;99.90;;;;;;5017535;28;20286;-51
2022/06/24 06:35:32;;;;;;;1.20;0.93;;;24.50;99.90;;;;;;5014130;28;20215;-51
2022/06/24 06:37:59;;;;;;;4.27;1.13;;;24.20;99.90;;;;;;5032769;28;20202;-51
2022/06/24 06:40:26;;;;;;;3.03;1.23;;;23.70;99.90;;;;;;5032638;28;20252;-51
2022/06/24 06:42:55;;;;;;;3.78;0.98;;;23.30;99.90;;;;;;5020607;28;20459;-52
2022/06/24 06:45:22;;;;;;;7.40;1.77;;;23.10;99.90;;;;;;5022684;28;20664;-51
2022/06/24 06:47:50;;;;;;;3.40;1.10;;;22.90;99.90;;;;;;5022573;28;20235;-51
2022/06/24 06:50:17;;;;;;;4.43;1.37;;;22.80;99.90;;;;;;5030443;28;20592;-51
2022/06/24 06:52:44;;;;;;;3.13;1.50;;;22.70;99.90;;;;;;5030327;28;20195;-51
2022/06/24 06:55:12;;;;;;;3.33;1.60;;;22.50;99.90;;;;;;5031767;28;20306;-51
2022/06/24 06:57:39;;;;;;;2.80;1.33;;;22.50;99.90;;;;;;5032151;28;20245;-51
2022/06/24 07:00:07;;;;;;;3.97;1.27;;;22.50;99.90;;;;;;5030951;28;20250;-52
2022/06/24 07:02:34;;;;;;;5.10;1.33;;;22.60;99.90;;;;;;5020900;28;20245;-51
2022/06/24 07:05:03;;;;;;;2.87;1.37;;;22.80;99.90;;;;;;5025101;28;20194;-51
2022/06/24 07:07:30;;;;;;;4.53;1.53;;;22.90;99.90;;;;;;5029868;28;20623;-51
2022/06/24 07:09:57;;;;;;;2.00;1.20;;;22.80;99.90;;;;;;5029877;28;20246;-52
2022/06/24 07:12:24;;;;;;;2.20;1.30;;;22.90;99.90;;;;;;5032834;28;20296;-51
2022/06/24 07:14:51;;;;;;;7.37;2.03;;;23.10;99.90;;;;;;5019952;28;20215;-51
2022/06/24 07:17:18;;;;;;;4.83;1.57;;;23.60;99.90;;;;;;5022182;28;20226;-51
2022/06/24 07:19:46;;;;;;;3.40;1.20;;;24.60;99.90;;;;;;5013691;28;20254;-51
2022/06/24 07:22:14;;;;;;;4.40;1.50;;;25.00;99.90;;;;;;5019378;28;20735;-51
2022/06/24 07:24:41;;;;;;;3.83;1.43;;;25.50;99.90;;;;;;5023379;28;20254;-52
2022/06/24 07:27:10;;;;;;;4.23;1.23;;;25.70;99.90;;;;;;5033576;28;20659;-51
2022/06/24 07:29:38;;;;;;;3.67;1.20;;;25.70;99.90;;;;;;5033746;28;20226;-51
2022/06/24 07:32:07;;;;;;;2.93;1.40;;;25.50;99.90;;;;;;5030055;28;20745;-51
2022/06/24 07:34:35;;;;;;;2.57;1.20;;;25.50;99.90;;;;;;5022031;28;20250;-51
2022/06/24 07:37:04;;;;;;;3.50;1.23;;;25.40;99.90;;;;;;5029399;28;20202;-51
2022/06/24 07:39:32;;;;;;;5.23;1.43;;;25.10;99.90;;;;;;5026875;28;20226;-52
2022/06/24 07:41:59;;;;;;;2.20;1.30;;;24.90;99.90;;;;;;5019319;28;20207;-51
2022/06/24 07:44:26;;;;;;;3.03;1.33;;;24.80;99.90;;;;;;5025480;28;20233;-51
2022/06/24 07:46:54;;;;;;;2.77;1.20;;;24.70;99.90;;;;;;5025173;28;20256;-51
2022/06/24 07:49:21;;;;;;;1.67;1.37;;;24.80;99.90;;;;;;5030552;28;20227;-51
2022/06/24 07:51:48;;;;;;;2.13;1.10;;;24.80;99.90;;;;;;5019260;28;20222;-51
2022/06/24 07:54:15;;;;;;;4.80;0.97;;;24.70;99.90;;;;;;5021714;28;20215;-51
2022/06/24 07:56:57;;;;;;;3.70;1.17;;;24.40;99.90;;;;;;5013826;28;20233;-51
2022/06/24 07:59:25;;;;;;;3.63;1.23;;;24.40;99.90;;;;;;5013306;28;20315;-51
2022/06/24 08:01:53;;;;;;;3.57;1.20;;;24.40;99.90;;;;;;5014331;28;20198;-51
2022/06/24 08:04:20;;;;;;;3.17;1.33;;;24.20;99.90;;;;;;5031502;28;20195;-51
2022/06/24 08:06:49;;;;;;;4.20;1.10;;;24.00;99.90;;;;;;5023891;28;20293;-51
2022/06/24 08:09:17;;;;;;;5.17;1.70;;;24.00;99.90;;;;;;5031952;28;20781;-52
2022/06/24 08:11:46;;;;;;;4.33;1.87;;;23.90;99.90;;;;;;5023950;28;20256;-51
2022/06/24 08:14:14;;;;;;;3.60;1.07;;;23.70;99.90;;;;;;5033018;28;20241;-51
2022/06/24 08:16:41;;;;;;;1.43;1.10;;;23.60;99.90;;;;;;5031565;28;20202;-51
2022/06/24 08:19:08;;;;;;;1.13;0.80;;;23.50;99.90;;;;;;5019445;28;20238;-51
2022/06/24 08:21:35;;;;;;;1.70;1.20;;;23.40;99.90;;;;;;5020459;28;20195;-51
2022/06/24 08:24:03;;;;;;;2.97;1.30;;;23.40;99.90;;;;;;5013068;28;20251;-51
2022/06/24 08:26:30;;;;;;;1.47;1.30;;;23.40;99.90;;;;;;5012474;28;20203;-51
2022/06/24 08:28:58;;;;;;;2.37;1.57;;;23.30;99.90;;;;;;5011132;28;20233;-51
2022/06/24 08:31:25;;;;;;;2.00;1.00;;;23.10;99.90;;;;;;5012132;28;20266;-51
2022/06/24 08:33:52;;;;;;;5.17;1.40;;;23.10;99.90;;;;;;5012572;28;20206;-51
2022/06/24 08:36:24;;;;;;;1.77;1.23;;;23.00;99.90;;;;;;5012840;28;20258;-51
2022/06/24 08:38:51;;;;;;;2.07;1.27;;;22.90;99.90;;;;;;5012885;28;20238;-51
2022/06/24 08:41:23;;;;;;;1.97;1.23;;;22.90;99.90;;;;;;5012003;28;20266;-51
2022/06/24 08:43:52;;;;;;;10.73;1.40;;;23.00;99.90;;;;;;5012809;28;20383;-51
2022/06/24 08:46:22;;;;;;;4.70;1.50;;;23.10;99.90;;;;;;5012871;28;20242;-52
2022/06/24 08:48:49;;;;;;;3.60;1.30;;;23.00;99.90;;;;;;5012523;28;20258;-52
2022/06/24 08:51:17;;;;;;;4.30;1.30;;;23.20;99.90;;;;;;5011855;28;20235;-52
2022/06/24 08:53:45;;;;;;;3.47;1.10;;;23.20;99.90;;;;;;5012448;28;20211;-52
2022/06/24 08:56:12;;;;;;;6.23;2.13;;;23.30;99.90;;;;;;5012207;28;20237;-52
2022/06/24 08:58:41;;;;;;;3.17;1.63;;;23.20;99.90;;;;;;5012432;28;20329;-52
2022/06/24 09:01:08;;;;;;;4.03;1.63;;;23.40;99.90;;;;;;5011792;28;20211;-53
2022/06/24 09:03:36;;;;;;;2.00;1.70;;;23.30;99.90;;;;;;5012274;28;20213;-52
2022/06/24 09:06:12;;;;;;;3.33;1.70;;;23.20;99.90;;;;;;5012273;28;20199;-52
2022/06/24 09:08:39;;;;;;;4.20;2.30;;;23.10;99.90;;;;;;5012144;28;20288;-52
2022/06/24 09:11:07;;;;;;;3.90;1.43;;;23.20;99.90;;;;;;5019468;28;20228;-52
2022/06/24 09:13:43;;;;;;;4.00;1.77;;;23.20;99.90;;;;;;5026934;28;20213;-52
2022/06/24 09:16:11;;;;;;;3.73;1.20;;;23.20;99.90;;;;;;5022765;28;20305;-53
2022/06/24 09:18:40;;;;;;;2.93;1.67;;;23.20;99.90;;;;;;5023522;28;20226;-52
2022/06/24 09:21:07;;;;;;;3.50;1.90;;;23.20;99.90;;;;;;5029097;28;20265;-52
2022/06/24 09:23:51;;;;;;;4.97;1.83;;;23.20;99.90;;;;;;5025071;28;20257;-52
2022/06/24 09:26:29;;;;;;;3.43;1.70;;;23.20;99.90;;;;;;5012253;28;20211;-52
2022/06/24 09:28:56;;;;;;;5.27;2.03;;;23.20;99.90;;;;;;5012025;28;20596;-52
2022/06/24 09:31:25;;;;;;;4.40;2.07;;;23.20;99.90;;;;;;5024565;28;20970;-52
2022/06/24 09:33:54;;;;;;;2.87;1.80;;;23.20;99.90;;;;;;5026922;28;20286;-52
2022/06/24 09:36:26;;;;;;;5.77;2.13;;;23.10;99.90;;;;;;5019864;28;20218;-51
2022/06/24 09:38:59;;;;;;;2.77;1.23;;;23.00;99.90;;;;;;5011888;28;20329;-51
2022/06/24 09:41:27;;;;;;;3.33;1.60;;;23.00;99.90;;;;;;5016442;28;20950;-52
2022/06/24 09:43:57;;;;;;;6.30;1.80;;;23.00;99.90;;;;;;5026449;28;20202;-52
2022/06/24 09:46:26;;;;;;;3.30;2.03;;;22.90;99.90;;;;;;5019917;28;20258;-52
2022/06/24 09:49:03;;;;;;;8.77;2.57;;;22.80;99.90;;;;;;5021319;28;20707;-51
2022/06/24 09:51:30;;;;;;;4.43;1.43;;;22.60;99.90;;;;;;5011027;28;20206;-51
2022/06/24 09:53:58;;;;;;;5.03;2.17;;;22.40;99.90;;;;;;5025298;28;20253;-51
2022/06/24 09:56:25;;;;;;;4.00;1.80;;;22.40;99.90;;;;;;5031064;28;20648;-51
2022/06/24 10:01:35;;;;;;;4.13;2.07;;;22.40;99.90;;;;;;5030548;28;20205;-52
2022/06/24 10:04:05;;;;;;;5.47;2.20;;;22.30;99.90;;;;;;5028282;28;20206;-52
2022/06/24 10:06:35;;;;;;;2.77;1.67;;;22.20;99.90;;;;;;5031256;28;20203;-52
2022/06/24 10:09:05;;;;;;;4.50;2.23;;;22.00;99.90;;;;;;5022123;28;20281;-51
2022/06/24 10:11:35;;;;;;;4.43;2.70;;;21.90;99.90;;;;;;5016081;28;20230;-51
2022/06/24 10:14:02;;;;;;;4.80;2.33;;;21.80;99.90;;;;;;5018560;28;20261;-52
2022/06/24 10:16:29;;;;;;;8.47;2.90;;;21.80;99.90;;;;;;5030950;28;20264;-52
2022/06/24 10:18:59;;;;;;;7.07;3.08;;;21.70;99.90;;;;;;5026191;28;20507;-52
2022/06/24 10:21:30;;;;;;;5.97;2.80;;;21.60;99.90;;;;;;5030122;28;20210;-52
2022/06/24 10:23:57;;;;;;;7.60;3.33;;;21.50;99.90;;;;;;5026613;28;20198;-52
2022/06/24 10:26:25;;;;;;;8.13;3.10;;;21.30;99.90;;;;;;5012104;28;20234;-51
2022/06/24 10:29:23;;;;;;;4.10;2.40;;;21.20;99.90;;;;;;5024450;28;20222;-52
2022/06/24 10:32:09;;;;;;;5.37;2.90;;;21.00;99.90;;;;;;5022017;28;20199;-51
2022/06/24 10:34:41;;;;;;;9.03;2.93;;;20.90;99.90;;;;;;5018416;28;20207;-51
2022/06/24 10:37:26;;;;;;;7.47;2.67;;;20.80;99.90;;;;;;5029751;28;20206;-51
2022/06/24 10:39:55;;;;;;;7.80;2.80;;;20.80;99.90;;;;;;5020797;28;20269;-51
2022/06/24 10:42:24;;;;;;;4.33;2.50;;;20.80;99.90;;;;;;5015721;28;20212;-51
2022/06/24 10:44:56;;;;;;;3.83;2.63;;;20.90;99.90;;;;;;5021653;28;20192;-51
2022/06/24 10:47:42;;;;;;;10.63;3.30;;;21.10;99.90;;;;;;5016390;28;20284;-52
2022/06/24 10:50:20;;;;;;;4.83;3.27;;;21.20;99.90;;;;;;5032663;28;20226;-51
2022/06/24 10:53:02;;;;;;;5.30;2.57;;;21.30;99.90;;;;;;5022471;28;20314;-51
2022/06/24 10:55:39;;;;;;;3.67;2.87;;;21.30;99.90;;;;;;5027855;28;20832;-51
2022/06/24 10:58:11;;;;;;;6.90;3.47;;;21.40;99.90;;;;;;5028630;28;20666;-51
2022/06/24 11:00:48;;;;;;;5.97;2.80;;;21.50;99.90;;;;;;5014371;28;20246;-51
2022/06/24 11:03:18;;;;;;;6.40;2.90;;;21.60;99.90;;;;;;5018015;28;20623;-51
2022/06/24 11:05:47;;;;;;;5.93;3.13;;;21.80;99.90;;;;;;5023327;28;20728;-51
2022/06/24 11:08:16;;;;;;;5.23;2.97;;;21.90;99.90;;;;;;5026888;28;20251;-51
2022/06/24 11:10:44;;;;;;;5.27;3.10;;;22.10;99.90;;;;;;5030380;28;20257;-52
2022/06/24 11:13:11;;;;;;;9.93;3.97;;;22.20;99.90;;;;;;5026548;28;20258;-51
2022/06/24 11:15:40;;;;;;;5.50;2.87;;;22.10;99.90;;;;;;5018254;28;20724;-51
2022/06/24 11:18:08;;;;;;;7.07;3.10;;;22.00;99.90;;;;;;5022252;28;20629;-52
2022/06/24 11:20:40;;;;;;;4.53;2.80;;;21.90;99.90;;;;;;5022068;28;20669;-51
2022/06/24 11:23:08;;;;;;;3.70;2.33;;;21.80;99.90;;;;;;5032663;28;20241;-51
2022/06/24 11:25:39;;;;;;;4.47;2.57;;;21.70;99.90;;;;;;5028313;28;20205;-51
2022/06/24 11:28:17;;;;;;;4.60;2.77;;;21.70;99.90;;;;;;5022377;28;21038;-51
2022/06/24 11:30:44;;;;;;;7.80;3.80;;;21.70;99.90;;;;;;5016172;28;20628;-51
2022/06/24 11:33:11;;;;;;;4.10;2.97;;;21.70;99.90;;;;;;5021043;28;20330;-51
2022/06/24 11:35:38;;;;;;;7.53;3.40;;;21.70;99.90;;;;;;5013803;28;20222;-51
2022/06/24 11:38:07;;;;;;;7.27;3.87;;;21.70;99.90;;;;;;5016366;28;20203;-51
2022/06/24 11:40:37;;;;;;;3.83;2.83;;;21.80;99.90;;;;;;5035190;22;20231;-57
2022/06/24 11:43:07;;;;;;;3.60;3.20;;;21.90;99.90;;;;;;5009564;28;20285;-57
2022/06/24 11:45:36;;;;;;;4.47;3.07;;;22.00;99.90;;;;;;5016292;28;20200;-57
2022/06/24 11:48:03;;;;;;;2.63;2.37;;;22.10;99.90;;;;;;5021923;28;20635;-57
2022/06/24 11:50:33;;;;;;;3.30;2.33;;;22.10;99.90;;;;;;5013006;28;20223;-56
2022/06/24 11:53:00;;;;;;;7.37;4.30;;;22.20;99.90;;;;;;5011252;28;20282;-56
2022/06/24 11:55:30;;;;;;;3.30;3.00;;;22.20;99.90;;;;;;5011664;28;20249;-56
2022/06/24 11:58:00;;;;;;;6.67;4.00;;;22.10;99.90;;;;;;5010548;28;20256;-56
2022/06/24 12:00:28;;;;;;;6.03;3.63;;;22.20;99.90;;;;;;5011011;28;20211;-56
2022/06/24 12:02:57;;;;;;;6.37;3.47;;;22.10;99.90;;;;;;5007008;28;20253;-56
2022/06/24 12:05:28;;;;;;;7.53;3.20;;;22.00;99.90;;;;;;5010864;28;20706;-56
2022/06/24 12:07:56;;;;;;;6.83;3.50;;;22.00;99.90;;;;;;5020894;28;20194;-56
2022/06/24 12:10:23;;;;;;;5.60;3.30;;;22.00;99.90;;;;;;5031975;28;20228;-56
2022/06/24 12:13:00;;;;;;;9.40;3.77;;;22.20;99.90;;;;;;5008173;28;20215;-56
2022/06/24 12:15:34;;;;;;;5.80;3.17;;;22.30;99.90;;;;;;5008032;28;20880;-56
2022/06/24 12:18:02;;;;;;;9.77;2.77;;;22.30;99.90;;;;;;5008348;28;20210;-56
2022/06/24 12:20:31;;;;;;;2.27;2.00;;;22.20;99.90;;;;;;5007820;28;20322;-56
2022/06/24 12:23:18;;;;;;;6.87;2.73;;;22.20;99.90;;;;;;5009879;28;20192;-56
2022/06/24 12:25:47;;;;;;;3.53;2.70;;;22.20;99.90;;;;;;5010048;28;20191;-56
2022/06/24 12:28:18;;;;;;;6.60;3.70;;;22.30;99.90;;;;;;5003218;28;20226;-56
2022/06/24 12:30:56;;;;;;;5.40;2.47;;;22.40;99.90;;;;;;5008600;28;20219;-56
2022/06/24 12:33:24;;;;;;;4.03;2.63;;;22.60;99.90;;;;;;5011574;28;20206;-56
2022/06/24 12:36:10;;;;;;;8.17;3.17;;;22.60;99.90;;;;;;5010635;28;20234;-56
2022/06/24 12:38:42;;;;;;;4.90;2.27;;;22.90;99.90;;;;;;5009294;28;20199;-56
2022/06/24 12:41:11;;;;;;;2.83;2.37;;;23.00;99.90;;;;;;5010223;28;20740;-56
2022/06/24 12:43:52;;;;;;;7.83;2.60;;;23.20;99.90;;;;;;5012099;28;20269;-56
2022/06/24 12:46:19;;;;;;;4.93;3.10;;;23.20;99.90;;;;;;5010781;28;20273;-56
2022/06/24 12:51:30;;;;;;;2.97;1.93;;;23.40;99.90;;;;;;5005038;28;20201;-56
2022/06/24 12:53:58;;;;;;;7.47;1.87;;;23.60;99.90;;;;;;5011735;28;20203;-56
2022/06/24 12:56:25;;;;;;;4.20;2.40;;;24.10;99.90;;;;;;5011035;28;20219;-56
2022/06/24 12:58:54;;;;;;;10.97;3.03;;;24.30;99.90;;;;;;5010382;28;20613;-56
2022/06/24 13:01:21;;;;;;;7.37;2.33;;;24.40;99.90;;;;;;5010866;28;20257;-56
2022/06/24 13:03:48;;;;;;;3.90;2.30;;;24.60;99.90;;;;;;5011723;28;20207;-56
2022/06/24 13:06:15;;;;;;;3.10;2.10;;;24.70;99.90;;;;;;5009190;28;20257;-56